Corpus Christi Naval Air Station/Truax Field
KNGP : now visible

Airfield :











YOU CAN JOIN US ON...

 
LOGIN :

Register | Disclaimer

   EN    FR    IT 

 









Legend :    VFR   Marginal VFR   IFR   Intensive IFR   Very Intensive IFR
Visi :
Ceiling :
>= 8 km
>= 3000ft
5 to 8 km
1000 to 3000 ft
1500m to 5 km
500 to 1000 ft
800 to 1500m
200 to 500 ft
< 800m
< 200 ft
Symbols :   Thunderstorms  Fog  Heavy snow  Heavy precipitations  Wind > 20 kt






- Airport Elevation : 18 ft


KNGP - Corpus Christi Naval Air Station/Truax Field

CURRENT METAR :
  • 171156Z AUTO 19009KT 4SM BR OVC002 20/20 A2987 RMK AO2 SLP115 T02000200 10206 20194 53001

EXPIRED METARs :
  • 171149Z AUTO 19007KT 2SM BR OVC002 20/20 A2987 RMK AO2 T02000200
  • 171141Z AUTO 19007KT 1 1/4SM BR OVC002 20/20 A2987 RMK AO2 T02000200
  • 171103Z AUTO 18008KT 3/4SM BR VV002 20/20 A2986 RMK AO2 T02000200
  • 171056Z AUTO 18009KT 1/2SM FG VV002 20/20 A2986 RMK AO2 SLP111 T02000200
  • 170956Z AUTO 17008KT 1/2SM FG VV002 20/20 A2986 RMK AO2 SLP111 T02000200
  • 170937Z AUTO 18009KT 1/2SM FG VV002 20/20 A2987 RMK AO2 T02000200

TAF AMD TAF KNGP
Valid from the 17 at 10:00 until the 18 at 07:00 UTC


1710/1807 12012KT 9999 BKN009 QNH2980INS
TEMPO 1710/1714 0800 FG VV002
FM171400 VRB06KT 4800 BR SCT003 BKN010 QNH2981INS
TEMPO 1801/1807 0800 FG VCSH VV002 QNH2978INS AUTOMATED SENSOR METWATCH 1710 TIL 1812 T18/1712Z T23/1821Z AMD 1005 FN00223



MET'MAP, your aeronautical weather chart ! - Copyright ORBIFLY December 2007 - Disclaimer

ORBIFLY MET'MAP TEAM :

Programming & Development : Alexandra Zaïnal
Concept & original design : Baudouin d'Aumeries
Assistance for programming : Marc-Olivier Méhu
Technical & hardware support : Manuel Goepfert

Contact : metmap@orbifly.com




SOURCES & CREDITS :

   NOAA       Earth
Advisory